createdAt,value
2022-10-26T00:01:52.727Z,31.10
2022-10-26T00:06:54.910Z,31.50
2022-10-26T00:11:56.975Z,31.30
2022-10-26T00:16:59.167Z,31.40
2022-10-26T00:22:01.382Z,31.30
2022-10-26T00:27:03.492Z,31.40
2022-10-26T00:32:06.651Z,32.20
2022-10-26T00:42:16.749Z,31.50
2022-10-26T00:47:35.615Z,32.30
2022-10-26T00:52:38.583Z,32.20
2022-10-26T00:57:41.474Z,32.20
2022-10-26T01:02:44.615Z,31.60
2022-10-26T01:07:47.968Z,32.40
2022-10-26T01:12:51.382Z,32.40
2022-10-26T01:18:15.465Z,32.50
2022-10-26T01:23:41.194Z,31.70
2022-10-26T01:29:01.270Z,31.90
2022-10-26T01:34:27.851Z,32.00
2022-10-26T01:39:53.868Z,32.00
2022-10-26T01:45:07.487Z,32.10
2022-10-26T01:50:11.454Z,33.20
2022-10-26T01:55:41.813Z,32.30
2022-10-26T02:00:55.656Z,32.20
2022-10-26T02:06:15.033Z,32.40
2022-10-26T02:11:30.921Z,33.60
2022-10-26T02:16:56.442Z,33.40
2022-10-26T02:22:07.259Z,32.40
2022-10-26T02:27:14.557Z,32.40
2022-10-26T02:32:18.615Z,32.30
2022-10-26T02:37:23.028Z,33.10
2022-10-26T02:42:26.851Z,33.10
2022-10-26T02:47:29.815Z,32.60
2022-10-26T02:52:44.194Z,32.50
2022-10-26T02:57:50.922Z,32.50
2022-10-26T03:02:57.266Z,32.60
2022-10-26T03:08:00.318Z,33.50
2022-10-26T03:13:03.622Z,33.70
2022-10-26T03:18:06.228Z,32.90
2022-10-26T03:23:08.362Z,33.10
2022-10-26T03:28:10.455Z,33.00
2022-10-26T03:33:13.170Z,32.90
2022-10-26T03:38:16.052Z,32.70
2022-10-26T03:43:18.397Z,33.70
2022-10-26T03:48:20.416Z,32.90
2022-10-26T03:53:22.415Z,33.80
2022-10-26T04:03:31.510Z,33.00
2022-10-26T04:08:33.594Z,33.00
2022-10-26T04:13:35.807Z,33.10
2022-10-26T04:18:37.867Z,33.80
2022-10-26T04:23:39.859Z,33.10
2022-10-26T04:28:41.896Z,33.00
2022-10-26T04:33:43.954Z,33.00
2022-10-26T04:38:48.005Z,33.10
2022-10-26T04:43:50.213Z,33.20
2022-10-26T04:48:52.314Z,33.20
2022-10-26T04:58:57.657Z,33.40
2022-10-26T05:03:59.706Z,33.30
2022-10-26T05:09:02.350Z,33.50
2022-10-26T05:14:04.510Z,33.40
2022-10-26T05:19:07.785Z,33.40
2022-10-26T05:24:11.704Z,33.40
2022-10-26T05:29:14.738Z,33.50
2022-10-26T05:34:16.786Z,33.50
2022-10-26T05:39:18.845Z,33.60
2022-10-26T05:44:20.877Z,33.40
2022-10-26T05:49:22.937Z,33.60
2022-10-26T05:54:25.166Z,33.40
2022-10-26T05:59:27.418Z,33.40
2022-10-26T06:04:38.749Z,33.40
2022-10-26T06:09:42.023Z,33.30
2022-10-26T06:14:44.507Z,33.40
2022-10-26T06:20:01.810Z,33.50
2022-10-26T06:25:38.594Z,33.60
2022-10-26T06:30:41.569Z,33.70
2022-10-26T06:36:05.730Z,33.80
2022-10-26T06:41:08.092Z,33.80
2022-10-26T06:46:43.626Z,33.80
2022-10-26T06:51:59.639Z,34.10
2022-10-26T06:57:02.049Z,34.00
2022-10-26T07:02:06.518Z,34.00
2022-10-26T07:07:18.013Z,34.00
2022-10-26T07:12:20.362Z,34.10
2022-10-26T07:17:22.477Z,34.10
2022-10-26T07:22:25.236Z,34.20
2022-10-26T07:27:27.197Z,34.20
2022-10-26T07:32:30.272Z,34.10
2022-10-26T07:37:32.431Z,34.00
2022-10-26T07:42:36.498Z,34.10
2022-10-26T07:47:38.773Z,34.20
2022-10-26T07:52:41.743Z,34.10
2022-10-26T07:57:43.866Z,34.20
2022-10-26T08:02:46.069Z,34.30
2022-10-26T08:07:48.624Z,34.40
2022-10-26T08:12:53.739Z,34.20
2022-10-26T08:17:55.889Z,34.30
2022-10-26T08:22:59.445Z,34.40
2022-10-26T08:28:03.380Z,34.20
2022-10-26T08:33:08.177Z,34.40
2022-10-26T08:38:10.256Z,34.30
2022-10-26T08:43:17.590Z,34.30
2022-10-26T08:48:27.350Z,34.30
2022-10-26T08:53:40.461Z,34.50
2022-10-26T08:58:47.469Z,34.30
2022-10-26T09:08:54.914Z,33.60
2022-10-26T09:14:05.364Z,33.20
2022-10-26T09:19:30.459Z,33.10
2022-10-26T09:24:34.164Z,33.20
2022-10-26T09:34:53.809Z,32.90
2022-10-26T09:40:10.726Z,32.40
2022-10-26T09:45:18.738Z,32.30
2022-10-26T09:50:38.978Z,32.20
2022-10-26T09:55:45.059Z,32.20
2022-10-26T10:00:47.961Z,32.10
2022-10-26T10:05:51.760Z,32.30
2022-10-26T10:10:55.882Z,32.30
2022-10-26T10:16:14.505Z,32.70
2022-10-26T10:21:16.571Z,32.30
2022-10-26T10:26:18.701Z,31.70
2022-10-26T10:31:26.880Z,31.70
2022-10-26T10:36:30.298Z,31.00
2022-10-26T10:41:36.563Z,29.80
2022-10-26T10:46:38.976Z,29.60
2022-10-26T10:51:41.353Z,29.10
2022-10-26T10:56:53.152Z,28.00
2022-10-26T11:02:19.899Z,27.60
2022-10-26T11:07:24.225Z,26.90
2022-10-26T11:13:00.912Z,26.90
2022-10-26T11:18:14.141Z,26.10
2022-10-26T11:23:49.241Z,26.40
2022-10-26T11:29:28.878Z,26.70
2022-10-26T11:34:50.871Z,26.10
2022-10-26T11:40:03.976Z,26.30
2022-10-26T11:45:15.658Z,25.60
2022-10-26T11:50:29.400Z,26.40
2022-10-26T11:55:31.933Z,26.40
2022-10-26T12:00:34.556Z,26.10
2022-10-26T12:05:51.301Z,25.50
2022-10-26T12:16:21.878Z,23.60
2022-10-26T12:21:29.629Z,23.80
2022-10-26T12:26:34.593Z,24.00
2022-10-26T12:31:36.744Z,24.10
2022-10-26T12:37:11.377Z,24.20
2022-10-26T12:42:16.427Z,23.50
2022-10-26T12:47:30.691Z,22.90
2022-10-26T12:52:56.329Z,22.20
2022-10-26T12:58:32.512Z,22.80
2022-10-26T13:03:56.389Z,23.00
2022-10-26T13:09:00.129Z,22.70
2022-10-26T13:14:08.956Z,22.60
2022-10-26T13:19:38.145Z,21.60
2022-10-26T13:24:48.837Z,18.10
2022-10-26T13:30:09.442Z,18.20
2022-10-26T13:35:16.287Z,18.20
2022-10-26T13:40:22.001Z,18.10
2022-10-26T13:45:33.653Z,17.30
2022-10-26T13:50:53.598Z,16.70
2022-10-26T13:56:08.679Z,16.50
2022-10-26T14:01:11.584Z,17.00
2022-10-26T14:06:17.333Z,16.50
2022-10-26T14:11:30.919Z,16.40
2022-10-26T14:16:34.623Z,16.30
2022-10-26T14:21:40.477Z,16.30
2022-10-26T14:26:42.639Z,16.20
2022-10-26T14:31:44.642Z,16.60
2022-10-26T14:36:58.478Z,16.00
2022-10-26T14:42:08.268Z,15.80
2022-10-26T14:47:31.856Z,14.20
2022-10-26T14:52:36.496Z,14.00
2022-10-26T14:57:41.022Z,14.40
2022-10-26T15:02:49.108Z,14.30
2022-10-26T15:07:53.192Z,14.20
2022-10-26T15:12:55.542Z,15.50
2022-10-26T15:17:59.638Z,15.90
2022-10-26T15:23:03.505Z,16.20
2022-10-26T15:28:30.640Z,16.40
2022-10-26T15:33:34.679Z,16.40
2022-10-26T15:38:37.013Z,16.90
2022-10-26T15:43:39.132Z,17.30
2022-10-26T15:48:41.998Z,17.50
2022-10-26T15:53:44.121Z,17.70
2022-10-26T15:58:46.585Z,17.90
2022-10-26T16:03:49.033Z,18.20
2022-10-26T16:08:53.675Z,18.30
2022-10-26T16:19:29.331Z,18.80
2022-10-26T16:24:26.651Z,19.00
2022-10-26T16:29:29.749Z,19.60
2022-10-26T16:34:31.842Z,19.80
2022-10-26T16:39:33.961Z,20.30
2022-10-26T16:44:37.887Z,20.60
2022-10-26T16:49:43.145Z,20.20
2022-10-26T16:54:45.549Z,20.40
2022-10-26T17:04:50.300Z,21.60
2022-10-26T17:09:52.337Z,21.40
2022-10-26T17:14:56.127Z,21.80
2022-10-26T17:19:58.204Z,22.30
2022-10-26T17:35:05.557Z,22.20
2022-10-26T17:40:08.304Z,22.00
2022-10-26T17:45:10.484Z,22.40
2022-10-26T17:50:12.638Z,22.60
2022-10-26T17:55:14.788Z,23.00
2022-10-26T18:00:18.156Z,23.20
2022-10-26T18:05:20.208Z,24.30
2022-10-26T18:10:38.366Z,23.90
2022-10-26T18:15:40.813Z,23.70
2022-10-26T18:20:42.921Z,23.90
2022-10-26T18:25:45.072Z,23.90
2022-10-26T18:30:47.152Z,24.20
2022-10-26T18:35:49.248Z,24.40
2022-10-26T18:40:53.399Z,24.60
2022-10-26T18:46:06.664Z,25.00
2022-10-26T18:51:13.358Z,24.80
2022-10-26T18:56:21.163Z,24.80
2022-10-26T19:01:26.769Z,25.40
2022-10-26T19:06:31.761Z,25.40
2022-10-26T19:11:34.505Z,25.60
2022-10-26T19:16:52.398Z,26.00
2022-10-26T19:21:54.539Z,26.30
2022-10-26T19:31:59.599Z,25.90
2022-10-26T19:37:01.760Z,25.80
2022-10-26T19:42:03.893Z,26.20
2022-10-26T19:47:06.073Z,27.00
2022-10-26T19:52:08.200Z,27.00
2022-10-26T19:57:10.350Z,26.80
2022-10-26T20:02:12.364Z,27.10
2022-10-26T20:07:15.763Z,27.20
2022-10-26T20:12:17.881Z,27.00
2022-10-26T20:17:19.993Z,27.80
2022-10-26T20:22:22.119Z,27.80
2022-10-26T20:27:24.206Z,27.90
2022-10-26T20:32:26.250Z,27.40
2022-10-26T20:37:28.618Z,27.40
2022-10-26T20:42:30.884Z,28.40
2022-10-26T20:47:33.196Z,27.90
2022-10-26T20:52:56.584Z,28.10
2022-10-26T20:58:11.142Z,28.80
2022-10-26T21:03:13.256Z,28.00
2022-10-26T21:08:15.356Z,27.90
2022-10-26T21:13:17.812Z,28.40
2022-10-26T21:18:19.989Z,28.30
2022-10-26T21:23:22.051Z,28.20
2022-10-26T21:28:24.274Z,28.50
2022-10-26T21:33:31.868Z,28.60
2022-10-26T21:38:34.694Z,28.40
2022-10-26T21:43:38.484Z,28.70
2022-10-26T21:48:41.076Z,28.70
2022-10-26T21:53:44.075Z,28.80
2022-10-26T21:58:46.782Z,28.80
2022-10-26T22:03:49.175Z,29.10
2022-10-26T22:08:52.898Z,29.40
2022-10-26T22:13:55.199Z,29.30
2022-10-26T22:18:59.448Z,29.80
2022-10-26T22:29:04.518Z,29.10
2022-10-26T22:34:10.825Z,29.00
2022-10-26T22:39:12.953Z,28.90
2022-10-26T22:44:14.973Z,28.80
2022-10-26T22:49:17.125Z,28.90
2022-10-26T22:54:19.814Z,28.80
2022-10-26T22:59:21.794Z,28.80
2022-10-26T23:09:26.312Z,29.00
2022-10-26T23:14:28.365Z,29.40
2022-10-26T23:19:30.421Z,28.90
2022-10-26T23:24:32.462Z,29.50
2022-10-26T23:29:34.516Z,28.80
2022-10-26T23:34:36.614Z,28.80
2022-10-26T23:39:38.642Z,28.70
2022-10-26T23:44:40.722Z,28.70
2022-10-26T23:49:42.730Z,28.90
2022-10-26T23:54:44.815Z,29.20
